sensor_id;sensor_type;location;lat;lon;timestamp;P1;P2;P0
50041;PMS7003;44598;51.606;5.912;2023-05-31T00:07:51;7.09;9.27;6.66
50041;PMS7003;44598;51.606;5.912;2023-05-31T00:21:11;6.85;9.38;7.2
50041;PMS7003;44598;51.606;5.912;2023-05-31T00:47:50;7.09;9.6;7.09
50041;PMS7003;44598;51.606;5.912;2023-05-31T01:01:10;7.69;10.04;7.09
50041;PMS7003;44598;51.606;5.912;2023-05-31T01:14:30;8.05;10.36;7.2
50041;PMS7003;44598;51.606;5.912;2023-05-31T01:27:49;8.17;10.47;7.75
50041;PMS7003;44598;51.606;5.912;2023-05-31T01:41:09;9.37;11.67;8.18
50041;PMS7003;44598;51.606;5.912;2023-05-31T01:54:28;8.17;10.69;7.53
50041;PMS7003;44598;51.606;5.912;2023-05-31T02:07:48;9.49;11.67;7.97
50041;PMS7003;44598;51.606;5.912;2023-05-31T02:34:27;9.61;11.89;8.84
50041;PMS7003;44598;51.606;5.912;2023-05-31T02:47:47;10.57;12.22;8.4
50041;PMS7003;44598;51.606;5.912;2023-05-31T03:01:07;10.81;12.98;8.95
50041;PMS7003;44598;51.606;5.912;2023-05-31T03:14:26;12.13;14.07;9.27
50041;PMS7003;44598;51.606;5.912;2023-05-31T03:27:46;12.73;14.72;10.04
50041;PMS7003;44598;51.606;5.912;2023-05-31T03:41:05;12.49;14.4;9.27
50041;PMS7003;44598;51.606;5.912;2023-05-31T03:54:25;12.49;14.51;9.6
50041;PMS7003;44598;51.606;5.912;2023-05-31T04:07:45;12.01;14.18;9.82
50041;PMS7003;44598;51.606;5.912;2023-05-31T04:21:04;13.33;15.27;9.71
50041;PMS7003;44598;51.606;5.912;2023-05-31T04:34:24;16.45;16.69;10.69
50041;PMS7003;44598;51.606;5.912;2023-05-31T04:47:44;14.77;15.71;10.04
50041;PMS7003;44598;51.606;5.912;2023-05-31T05:01:03;15.01;16.47;10.91
50041;PMS7003;44598;51.606;5.912;2023-05-31T05:14:23;16.21;16.9;10.69
50041;PMS7003;44598;51.606;5.912;2023-05-31T05:27:43;16.09;16.9;10.69
50041;PMS7003;44598;51.606;5.912;2023-05-31T05:41:02;15.97;16.58;10.15
50041;PMS7003;44598;51.606;5.912;2023-05-31T05:54:22;13.21;15.16;9.93
50041;PMS7003;44598;51.606;5.912;2023-05-31T06:07:41;14.17;15.6;9.49
50041;PMS7003;44598;51.606;5.912;2023-05-31T06:21:01;12.25;13.85;9.17
50041;PMS7003;44598;51.606;5.912;2023-05-31T06:34:21;10.81;12.65;8.4
50041;PMS7003;44598;51.606;5.912;2023-05-31T06:47:40;10.33;12.11;7.86
50041;PMS7003;44598;51.606;5.912;2023-05-31T07:01:00;8.89;11.13;7.09
50041;PMS7003;44598;51.606;5.912;2023-05-31T07:14:20;8.89;10.91;7.2
50041;PMS7003;44598;51.606;5.912;2023-05-31T07:27:39;11.41;11.02;7.31
50041;PMS7003;44598;51.606;5.912;2023-05-31T07:40:59;8.29;10.36;6.55
50041;PMS7003;44598;51.606;5.912;2023-05-31T07:54:18;8.41;10.8;6.88
50041;PMS7003;44598;51.606;5.912;2023-05-31T08:07:38;8.29;10.04;6.22
50041;PMS7003;44598;51.606;5.912;2023-05-31T08:34:17;5.89;8.4;5.57
50041;PMS7003;44598;51.606;5.912;2023-05-31T08:47:37;5.89;8.18;5.02
50041;PMS7003;44598;51.606;5.912;2023-05-31T09:00:57;5.41;7.09;4.48
50041;PMS7003;44598;51.606;5.912;2023-05-31T09:14:16;3.36;6.11;3.93
50041;PMS7003;44598;51.606;5.912;2023-05-31T09:27:36;4.45;6.11;3.93
50041;PMS7003;44598;51.606;5.912;2023-05-31T09:40:56;4.93;6.44;4.26
50041;PMS7003;44598;51.606;5.912;2023-05-31T09:54:15;2.88;5.24;3.39
50041;PMS7003;44598;51.606;5.912;2023-05-31T10:07:35;2.16;4.26;3.06
50041;PMS7003;44598;51.606;5.912;2023-05-31T10:20:54;3.12;4.91;3.39
50041;PMS7003;44598;51.606;5.912;2023-05-31T10:34:14;2.04;3.93;2.95
50041;PMS7003;44598;51.606;5.912;2023-05-31T10:47:34;2.16;4.26;2.95
50041;PMS7003;44598;51.606;5.912;2023-05-31T11:14:13;1.32;3.06;2.08
50041;PMS7003;44598;51.606;5.912;2023-05-31T11:27:32;0.12;3.06;2.19
50041;PMS7003;44598;51.606;5.912;2023-05-31T11:40:52;1.08;3.82;2.19
50041;PMS7003;44598;51.606;5.912;2023-05-31T11:54:12;0.01;3.06;2.19
50041;PMS7003;44598;51.606;5.912;2023-05-31T12:07:31;0.6;3.5;2.41
50041;PMS7003;44598;51.606;5.912;2023-05-31T12:34:11;1.32;3.28;2.19
50041;PMS7003;44598;51.606;5.912;2023-05-31T12:47:30;0.01;2.84;2.08
50041;PMS7003;44598;51.606;5.912;2023-05-31T13:00:50;0.72;3.28;2.3
50041;PMS7003;44598;51.606;5.912;2023-05-31T13:14:10;0.36;2.95;2.19
50041;PMS7003;44598;51.606;5.912;2023-05-31T13:27:29;0.48;3.17;2.08
50041;PMS7003;44598;51.606;5.912;2023-05-31T13:40:49;0.84;2.84;2.08
50041;PMS7003;44598;51.606;5.912;2023-05-31T13:54:09;1.2;2.73;1.97
50041;PMS7003;44598;51.606;5.912;2023-05-31T14:07:28;0.01;2.84;1.97
50041;PMS7003;44598;51.606;5.912;2023-05-31T14:20:48;0.6;2.84;2.08
50041;PMS7003;44598;51.606;5.912;2023-05-31T14:34:08;0.84;2.52;1.75
50041;PMS7003;44598;51.606;5.912;2023-05-31T15:00:47;0.01;2.95;1.97
50041;PMS7003;44598;51.606;5.912;2023-05-31T15:14:06;1.56;3.28;2.19
50041;PMS7003;44598;51.606;5.912;2023-05-31T15:27:26;0.36;3.28;2.08
50041;PMS7003;44598;51.606;5.912;2023-05-31T15:40:46;0.48;3.39;2.19
50041;PMS7003;44598;51.606;5.912;2023-05-31T15:54:05;0.12;2.95;2.19
50041;PMS7003;44598;51.606;5.912;2023-05-31T16:20:45;0.01;2.52;1.97
50041;PMS7003;44598;51.606;5.912;2023-05-31T16:34:04;0.72;2.73;2.08
50041;PMS7003;44598;51.606;5.912;2023-05-31T17:00:44;0.48;2.62;1.97
50041;PMS7003;44598;51.606;5.912;2023-05-31T17:14:03;0.12;3.28;2.3
50041;PMS7003;44598;51.606;5.912;2023-05-31T17:27:23;0.0;3.06;2.08
50041;PMS7003;44598;51.606;5.912;2023-05-31T17:40:42;0.24;3.28;2.52
50041;PMS7003;44598;51.606;5.912;2023-05-31T17:54:02;0.36;3.61;2.52
50041;PMS7003;44598;51.606;5.912;2023-05-31T18:07:22;0.6;3.39;2.52
50041;PMS7003;44598;51.606;5.912;2023-05-31T18:47:21;0.6;3.82;2.62
50041;PMS7003;44598;51.606;5.912;2023-05-31T19:00:40;0.36;3.28;2.52
50041;PMS7003;44598;51.606;5.912;2023-05-31T19:14:00;1.08;3.93;2.3
50041;PMS7003;44598;51.606;5.912;2023-05-31T19:27:19;0.12;3.28;2.3
50041;PMS7003;44598;51.606;5.912;2023-05-31T19:40:39;0.96;3.39;2.3
50041;PMS7003;44598;51.606;5.912;2023-05-31T19:53:59;0.6;3.71;2.52
50041;PMS7003;44598;51.606;5.912;2023-05-31T20:07:18;1.8;3.17;2.3
50041;PMS7003;44598;51.606;5.912;2023-05-31T20:20:38;0.72;3.61;2.3
50041;PMS7003;44598;51.606;5.912;2023-05-31T20:47:17;0.96;3.61;2.62
50041;PMS7003;44598;51.606;5.912;2023-05-31T21:00:37;0.96;3.61;2.41
50041;PMS7003;44598;51.606;5.912;2023-05-31T21:13:57;1.2;4.26;2.73
50041;PMS7003;44598;51.606;5.912;2023-05-31T21:27:16;1.44;3.93;2.95
50041;PMS7003;44598;51.606;5.912;2023-05-31T21:40:36;2.52;4.7;3.5
50041;PMS7003;44598;51.606;5.912;2023-05-31T21:53:55;3.73;4.8;3.39
50041;PMS7003;44598;51.606;5.912;2023-05-31T22:07:15;1.68;4.59;3.61
50041;PMS7003;44598;51.606;5.912;2023-05-31T22:20:35;3.73;6.22;3.93
50041;PMS7003;44598;51.606;5.912;2023-05-31T22:33:54;3.36;5.68;3.93
50041;PMS7003;44598;51.606;5.912;2023-05-31T22:47:14;3.36;6.11;4.48
50041;PMS7003;44598;51.606;5.912;2023-05-31T23:00:34;4.45;6.88;4.8
50041;PMS7003;44598;51.606;5.912;2023-05-31T23:13:53;6.01;8.62;5.9
50041;PMS7003;44598;51.606;5.912;2023-05-31T23:53:52;10.09;11.24;6.77
